Time;durP1;ratioP1;P1;durP2;ratioP2;P2;SDS_P1;SDS_P2;PMS_P1;PMS_P2;Temp;Humidity;BMP_temperature;BMP_pressure;BME280_temperature;BME280_humidity;BME280_pressure;Samples;Min_cycle;Max_cycle;Signal;HPM_P1;HPM_P2
2024/01/28 00:01:17;;;;;;;1.05;0.70;;;18.20;67.00;;;;;;6150395;23;20174;-83
2024/01/28 00:03:43;;;;;;;1.17;0.70;;;18.20;66.70;;;;;;6200646;23;20135;-84
2024/01/28 00:06:11;;;;;;;1.02;0.57;;;18.20;67.00;;;;;;6149699;23;20553;-84
2024/01/28 00:14:36;;;;;;;1.27;0.80;;;18.20;66.90;;;;;;6168091;23;20207;-83
2024/01/28 00:17:01;;;;;;;0.88;0.57;;;18.20;67.00;;;;;;6169283;23;20174;-84
2024/01/28 00:19:29;;;;;;;0.70;0.60;;;18.10;67.00;;;;;;6070906;23;20239;-84
2024/01/28 00:21:55;;;;;;;1.08;0.63;;;18.20;66.60;;;;;;6144973;23;20147;-84
2024/01/28 00:24:24;;;;;;;0.70;0.57;;;18.20;66.80;;;;;;6144484;23;20162;-85
2024/01/28 00:26:51;;;;;;;0.80;0.52;;;18.20;66.80;;;;;;6148150;23;20151;-85
2024/01/28 00:29:20;;;;;;;0.60;0.50;;;18.20;66.80;;;;;;6124734;23;20174;-83
2024/01/28 00:31:46;;;;;;;1.63;0.90;;;18.10;66.90;;;;;;6149006;23;20123;-85
2024/01/28 00:34:15;;;;;;;1.95;0.85;;;18.20;67.00;;;;;;6128009;23;20209;-83
2024/01/28 00:39:16;;;;;;;1.48;0.82;;;18.10;66.90;;;;;;6110700;23;20289;-85
2024/01/28 00:41:42;;;;;;;1.40;0.80;;;18.10;67.20;;;;;;6061543;23;20192;-84
2024/01/28 00:44:08;;;;;;;1.17;0.60;;;18.10;67.20;;;;;;6038192;23;20152;-84
2024/01/28 00:46:33;;;;;;;1.80;0.60;;;18.10;67.20;;;;;;6038458;23;20145;-85
2024/01/28 00:49:01;;;;;;;1.13;0.60;;;18.10;67.30;;;;;;6085502;23;20211;-85
2024/01/28 00:51:28;;;;;;;0.77;0.60;;;18.10;67.20;;;;;;6061918;23;20126;-85
2024/01/28 00:53:54;;;;;;;0.82;0.60;;;18.10;67.00;;;;;;6037358;23;20445;-84
2024/01/28 00:56:19;;;;;;;0.80;0.60;;;18.10;67.20;;;;;;6061078;23;20137;-84
2024/01/28 01:01:22;;;;;;;1.02;0.60;;;18.10;67.10;;;;;;6173403;23;20217;-85
2024/01/28 01:06:15;;;;;;;1.48;0.70;;;18.10;67.20;;;;;;6191550;23;20301;-85
2024/01/28 01:08:41;;;;;;;1.02;0.63;;;18.10;67.30;;;;;;6149126;23;20139;-84
2024/01/28 01:11:08;;;;;;;1.20;0.70;;;18.10;67.10;;;;;;6172248;23;20642;-84
2024/01/28 01:13:34;;;;;;;2.85;0.70;;;18.10;66.90;;;;;;6173858;23;20166;-83
2024/01/28 01:18:35;;;;;;;0.85;0.60;;;18.10;67.30;;;;;;6166483;23;20206;-84
2024/01/28 01:21:04;;;;;;;1.08;0.82;;;18.10;67.10;;;;;;6143902;23;20142;-86
2024/01/28 01:23:30;;;;;;;1.00;0.63;;;18.10;66.90;;;;;;6119840;23;20139;-84
2024/01/28 01:25:55;;;;;;;1.13;0.60;;;18.10;67.10;;;;;;6119220;23;20556;-85
2024/01/28 01:28:31;;;;;;;1.00;0.60;;;18.10;66.90;;;;;;6095482;23;20150;-83
2024/01/28 01:30:58;;;;;;;1.40;0.60;;;18.10;67.00;;;;;;6120359;23;20147;-84
2024/01/28 01:33:28;;;;;;;1.27;0.70;;;18.10;66.80;;;;;;6095121;23;20186;-83
2024/01/28 01:35:55;;;;;;;0.95;0.60;;;18.10;67.00;;;;;;6118748;23;20151;-83
2024/01/28 01:38:23;;;;;;;1.08;0.70;;;18.10;67.10;;;;;;6118410;23;20153;-84
2024/01/28 01:40:49;;;;;;;1.77;0.80;;;18.10;66.70;;;;;;6118330;23;20171;-84
2024/01/28 01:43:15;;;;;;;1.50;0.75;;;18.10;67.20;;;;;;6094491;23;20147;-83
2024/01/28 01:45:43;;;;;;;1.05;0.70;;;18.00;67.00;;;;;;6118486;23;20199;-84
2024/01/28 01:48:12;;;;;;;1.52;0.73;;;18.00;67.00;;;;;;6119124;23;20155;-84
2024/01/28 01:50:42;;;;;;;1.38;0.60;;;18.00;67.00;;;;;;6118213;23;20150;-84
2024/01/28 01:53:09;;;;;;;0.98;0.50;;;18.00;67.00;;;;;;6143367;23;20151;-85
2024/01/28 01:55:38;;;;;;;0.98;0.57;;;18.10;67.10;;;;;;6143792;23;20200;-84
2024/01/28 01:58:04;;;;;;;0.90;0.60;;;18.00;66.90;;;;;;6094816;23;20138;-84
2024/01/28 02:00:32;;;;;;;1.48;0.85;;;18.00;67.00;;;;;;6095974;23;20425;-84
2024/01/28 02:02:58;;;;;;;1.25;0.70;;;18.00;66.80;;;;;;6143523;23;20138;-84
2024/01/28 02:05:27;;;;;;;0.82;0.50;;;18.10;67.00;;;;;;6143739;23;20132;-84
2024/01/28 02:07:56;;;;;;;1.42;0.82;;;18.00;66.80;;;;;;6144246;23;20199;-85
2024/01/28 02:10:25;;;;;;;1.60;0.70;;;18.00;66.80;;;;;;6142426;23;20143;-84
2024/01/28 02:12:51;;;;;;;1.30;0.70;;;18.10;67.00;;;;;;6143023;23;20147;-84
2024/01/28 02:17:52;;;;;;;0.57;0.52;;;18.00;66.80;;;;;;6156800;23;20202;-84
2024/01/28 02:20:19;;;;;;;1.30;0.70;;;18.00;66.90;;;;;;6118262;23;20595;-83
2024/01/28 02:23:21;;;;;;;;;;;;;;;;;;;;;
2024/01/28 02:26:22;;;;;;;0.82;0.60;;;18.00;67.00;;;;;;5937444;24;20192;-85
2024/01/28 02:28:48;;;;;;;1.73;0.70;;;18.00;67.00;;;;;;5807513;24;20194;-84
2024/01/28 02:31:24;;;;;;;;;;;;;;;;;;;;;
2024/01/28 02:33:40;;;;;;;0.85;0.60;;;18.00;67.00;;;;;;6132814;23;20222;-84
2024/01/28 02:36:07;;;;;;;1.75;0.80;;;18.00;67.00;;;;;;6118798;23;20167;-84
2024/01/28 02:38:33;;;;;;;0.50;0.50;;;18.00;66.90;;;;;;6143015;23;20670;-84
2024/01/28 02:40:59;;;;;;;1.08;0.70;;;18.00;66.80;;;;;;6123812;23;20223;-84
2024/01/28 02:43:25;;;;;;;0.70;0.55;;;18.00;66.80;;;;;;6123883;23;20147;-85
2024/01/28 02:45:54;;;;;;;1.30;0.77;;;18.10;67.00;;;;;;6123568;23;20225;-85
2024/01/28 02:48:22;;;;;;;1.70;0.68;;;18.10;66.80;;;;;;6148924;23;20131;-84
2024/01/28 02:50:48;;;;;;;1.15;0.60;;;18.00;66.70;;;;;;6123284;23;20143;-83
2024/01/28 02:53:20;;;;;;;2.00;0.82;;;18.00;66.90;;;;;;6123632;23;20205;-84
2024/01/28 02:55:49;;;;;;;1.23;0.60;;;18.00;66.80;;;;;;6151429;23;20158;-84
2024/01/28 02:58:18;;;;;;;1.58;0.70;;;18.00;66.70;;;;;;6151247;23;20130;-84
2024/01/28 03:00:45;;;;;;;1.55;0.70;;;18.00;67.50;;;;;;6149855;23;20194;-84
2024/01/28 03:03:12;;;;;;;0.98;0.63;;;18.00;67.00;;;;;;6125381;23;20138;-83
2024/01/28 03:05:38;;;;;;;1.77;0.70;;;18.10;67.00;;;;;;6125495;23;20146;-84
2024/01/28 03:08:04;;;;;;;1.00;0.60;;;18.00;66.80;;;;;;6125735;23;20196;-85
2024/01/28 03:10:34;;;;;;;1.10;0.60;;;18.00;66.80;;;;;;6174509;23;20135;-84
2024/01/28 03:13:00;;;;;;;1.30;0.68;;;18.00;67.00;;;;;;6149875;23;20135;-83
2024/01/28 03:15:29;;;;;;;1.20;0.70;;;18.00;66.70;;;;;;6149658;23;20131;-83
2024/01/28 03:17:56;;;;;;;0.70;0.52;;;18.00;66.70;;;;;;6150701;23;20145;-84
2024/01/28 03:20:23;;;;;;;0.90;0.65;;;18.00;66.90;;;;;;6125478;23;20135;-85
2024/01/28 03:22:50;;;;;;;1.65;0.82;;;18.00;66.80;;;;;;6125553;23;20218;-85
2024/01/28 03:25:17;;;;;;;0.80;0.70;;;18.00;66.80;;;;;;6150404;23;20131;-84
2024/01/28 03:27:43;;;;;;;0.73;0.52;;;18.00;66.70;;;;;;6149054;23;20554;-86
2024/01/28 03:30:10;;;;;;;1.20;0.60;;;18.00;66.90;;;;;;6125505;23;20135;-84
2024/01/28 03:32:36;;;;;;;1.08;0.70;;;18.00;66.90;;;;;;6125981;23;20181;-84
2024/01/28 03:35:04;;;;;;;1.35;0.80;;;18.00;67.00;;;;;;6150026;23;20190;-84
2024/01/28 03:37:29;;;;;;;1.00;0.70;;;18.10;66.80;;;;;;6125717;23;20153;-84
2024/01/28 03:39:56;;;;;;;0.98;0.63;;;18.00;66.80;;;;;;6149842;23;20146;-83
2024/01/28 03:42:24;;;;;;;0.60;0.50;;;18.00;66.90;;;;;;6124504;23;20210;-84
2024/01/28 03:47:19;;;;;;;0.77;0.50;;;18.00;66.70;;;;;;6167118;23;20199;-84
2024/01/28 03:52:20;;;;;;;1.45;0.75;;;17.90;66.90;;;;;;6165058;23;20569;-84
2024/01/28 03:57:13;;;;;;;1.40;0.75;;;18.00;66.70;;;;;;6172702;23;20217;-84
2024/01/28 03:59:39;;;;;;;0.95;0.70;;;17.90;66.70;;;;;;6124737;23;20157;-84
2024/01/28 04:02:07;;;;;;;1.27;0.70;;;18.00;66.80;;;;;;6149040;23;20127;-83
2024/01/28 04:04:34;;;;;;;0.90;0.70;;;17.90;66.90;;;;;;6150226;23;20131;-83
2024/01/28 04:07:00;;;;;;;1.98;0.80;;;17.90;66.80;;;;;;6174128;23;20157;-84
2024/01/28 04:12:01;;;;;;;1.17;0.60;;;17.90;66.80;;;;;;6158715;23;20269;-83
2024/01/28 04:17:16;;;;;;;1.85;0.70;;;17.90;66.70;;;;;;6171991;23;20206;-83
2024/01/28 04:19:42;;;;;;;1.63;0.80;;;17.90;66.80;;;;;;6203815;23;20236;-84
2024/01/28 04:22:09;;;;;;;1.95;0.77;;;17.90;66.60;;;;;;6154161;23;20481;-84
2024/01/28 04:24:36;;;;;;;1.10;0.60;;;17.90;67.50;;;;;;6154969;23;20150;-84
2024/01/28 04:29:32;;;;;;;1.42;0.82;;;17.90;66.70;;;;;;6137912;23;20206;-85
2024/01/28 04:31:58;;;;;;;0.93;0.68;;;18.00;66.50;;;;;;6125318;23;20162;-84
2024/01/28 04:34:24;;;;;;;1.02;0.68;;;17.90;66.70;;;;;;6124980;23;20175;-84
2024/01/28 04:36:53;;;;;;;2.03;0.80;;;17.90;66.60;;;;;;6125160;23;20138;-84
2024/01/28 04:39:19;;;;;;;1.42;0.80;;;17.90;66.70;;;;;;6124331;23;20139;-84
2024/01/28 04:41:46;;;;;;;1.25;0.80;;;17.90;66.60;;;;;;6173981;23;20185;-85
2024/01/28 04:44:12;;;;;;;1.13;0.60;;;17.90;66.70;;;;;;6125567;23;20226;-84
2024/01/28 04:46:41;;;;;;;0.60;0.57;;;18.00;66.70;;;;;;6124192;23;20150;-84
2024/01/28 04:51:45;;;;;;;0.70;0.60;;;18.00;66.60;;;;;;6166199;23;20206;-83
2024/01/28 04:54:14;;;;;;;1.55;0.70;;;18.00;66.70;;;;;;6144049;23;20183;-84
2024/01/28 04:56:44;;;;;;;1.15;0.60;;;17.90;66.60;;;;;;6144340;23;20135;-84
2024/01/28 04:59:12;;;;;;;0.88;0.50;;;17.90;66.60;;;;;;6169601;23;20131;-83
2024/01/28 05:01:40;;;;;;;0.80;0.57;;;18.00;66.30;;;;;;6150042;23;20218;-85
2024/01/28 05:04:07;;;;;;;1.42;0.80;;;18.00;66.80;;;;;;6148587;23;20131;-84
2024/01/28 05:06:35;;;;;;;1.92;0.77;;;17.90;66.60;;;;;;6124541;23;20154;-84
2024/01/28 05:09:04;;;;;;;1.08;0.80;;;17.90;66.60;;;;;;6174105;23;20135;-84
2024/01/28 05:11:31;;;;;;;1.58;0.60;;;17.80;66.70;;;;;;6124872;23;20173;-83
2024/01/28 05:13:58;;;;;;;1.00;0.68;;;17.90;66.60;;;;;;6149370;23;20204;-83
2024/01/28 05:16:25;;;;;;;1.35;0.70;;;17.90;66.50;;;;;;6124542;23;20201;-85
2024/01/28 05:18:51;;;;;;;1.27;0.60;;;17.90;66.50;;;;;;6125152;23;20186;-85
2024/01/28 05:21:18;;;;;;;1.45;0.90;;;17.90;66.50;;;;;;6128254;23;20206;-83
2024/01/28 05:23:45;;;;;;;1.05;0.63;;;17.90;66.60;;;;;;6113361;23;21128;-84
2024/01/28 05:28:38;;;;;;;1.35;0.60;;;17.90;66.60;;;;;;6163855;23;20207;-84
2024/01/28 05:31:03;;;;;;;1.23;0.82;;;17.90;66.60;;;;;;6145642;23;20140;-87
2024/01/28 05:33:29;;;;;;;0.95;0.55;;;17.90;66.50;;;;;;6170716;23;20175;-84
2024/01/28 05:35:57;;;;;;;0.73;0.50;;;17.90;66.50;;;;;;6145033;23;20182;-83
2024/01/28 05:41:29;;;;;;;0.60;0.60;;;17.90;66.40;;;;;;6168646;23;20210;-83
2024/01/28 05:43:56;;;;;;;2.03;0.68;;;17.90;66.30;;;;;;6143689;23;20151;-83
2024/01/28 05:48:56;;;;;;;1.08;0.70;;;17.90;66.10;;;;;;6140503;23;20184;-84
2024/01/28 05:56:33;;;;;;;1.25;0.77;;;17.90;66.30;;;;;;6152729;23;20192;-82
2024/01/28 05:59:00;;;;;;;1.20;0.88;;;17.90;66.20;;;;;;6124569;23;20505;-84
2024/01/28 06:01:25;;;;;;;1.35;0.70;;;17.90;66.20;;;;;;6125260;23;20149;-84
2024/01/28 06:03:51;;;;;;;1.17;0.60;;;17.90;66.10;;;;;;6124509;23;20146;-84
2024/01/28 06:06:17;;;;;;;1.42;0.73;;;17.90;66.50;;;;;;6148776;23;20127;-84
2024/01/28 06:08:44;;;;;;;0.60;0.60;;;17.90;66.40;;;;;;6149428;23;20173;-86
2024/01/28 06:11:11;;;;;;;0.82;0.60;;;17.90;66.60;;;;;;6124770;23;20153;-85
2024/01/28 06:13:37;;;;;;;1.38;0.80;;;17.90;66.20;;;;;;6150169;23;20179;-84
2024/01/28 06:16:06;;;;;;;1.25;0.63;;;17.90;66.40;;;;;;6123725;23;20139;-85
2024/01/28 06:18:35;;;;;;;1.25;0.63;;;17.90;66.30;;;;;;6148430;23;20202;-84
2024/01/28 06:21:06;;;;;;;1.15;0.70;;;17.90;66.50;;;;;;6124209;23;20230;-84
2024/01/28 06:23:33;;;;;;;1.92;0.73;;;17.90;66.40;;;;;;6147753;23;20177;-85
2024/01/28 06:25:59;;;;;;;1.52;0.80;;;17.90;66.40;;;;;;6147915;23;20127;-84
2024/01/28 06:28:25;;;;;;;1.35;0.75;;;17.90;66.20;;;;;;6147673;23;20146;-85
2024/01/28 06:30:52;;;;;;;3.53;0.80;;;17.90;66.30;;;;;;6148568;23;20147;-83
2024/01/28 06:33:18;;;;;;;5.28;0.85;;;17.90;66.50;;;;;;6122907;23;20614;-84
2024/01/28 06:35:44;;;;;;;1.77;0.70;;;17.90;66.60;;;;;;6121635;23;20135;-87
2024/01/28 06:38:09;;;;;;;0.82;0.50;;;17.90;66.60;;;;;;6113852;23;20131;-85
2024/01/28 06:40:39;;;;;;;4.70;0.70;;;17.80;66.30;;;;;;6134966;23;20570;-88
2024/01/28 06:43:07;;;;;;;1.20;0.55;;;17.80;66.20;;;;;;6135038;23;20174;-87
2024/01/28 06:45:33;;;;;;;1.13;0.75;;;17.90;66.50;;;;;;6110102;23;20154;-84
2024/01/28 06:47:59;;;;;;;2.70;0.80;;;17.80;66.40;;;;;;6134977;23;20217;-84
2024/01/28 06:50:25;;;;;;;3.40;0.55;;;17.90;66.30;;;;;;6158972;23;20198;-85
2024/01/28 06:52:51;;;;;;;1.52;0.90;;;17.90;66.20;;;;;;6110011;23;20150;-87
2024/01/28 06:55:17;;;;;;;1.23;0.80;;;17.90;66.20;;;;;;6134723;23;20163;-88
2024/01/28 06:57:46;;;;;;;0.65;0.43;;;17.90;66.20;;;;;;6110173;23;20648;-87
2024/01/28 07:00:13;;;;;;;1.45;0.50;;;17.80;66.10;;;;;;6110388;23;20213;-85
2024/01/28 07:02:40;;;;;;;1.65;0.88;;;17.90;66.40;;;;;;6135005;23;20131;-86
2024/01/28 07:05:09;;;;;;;1.02;0.70;;;17.90;66.30;;;;;;6133987;23;20479;-85
2024/01/28 07:07:34;;;;;;;1.33;0.68;;;17.90;66.30;;;;;;6135284;23;20146;-87
2024/01/28 07:12:32;;;;;;;1.90;0.70;;;17.90;65.90;;;;;;6102242;23;20164;-84
2024/01/28 07:14:58;;;;;;;0.93;0.55;;;17.90;66.10;;;;;;6100216;23;20172;-85
2024/01/28 07:17:26;;;;;;;1.17;0.75;;;17.90;66.20;;;;;;6051683;23;20209;-88
2024/01/28 07:19:53;;;;;;;2.55;0.68;;;17.80;66.20;;;;;;6053255;23;20564;-86
2024/01/28 07:22:19;;;;;;;2.30;0.90;;;17.90;66.20;;;;;;6052637;23;20175;-88
2024/01/28 07:24:45;;;;;;;3.28;0.70;;;17.80;66.30;;;;;;6052307;23;20580;-85
2024/01/28 07:27:13;;;;;;;3.88;1.13;;;17.80;66.30;;;;;;6077132;23;20133;-86
2024/01/28 07:29:39;;;;;;;4.05;0.90;;;17.80;66.30;;;;;;6100371;23;20136;-85
2024/01/28 07:32:08;;;;;;;1.55;0.68;;;17.80;66.20;;;;;;6052606;23;20153;-87
2024/01/28 07:34:33;;;;;;;2.05;0.68;;;17.80;66.40;;;;;;6053019;23;20179;-85
2024/01/28 07:37:01;;;;;;;7.15;1.80;;;17.80;66.10;;;;;;6101229;23;20159;-86
2024/01/28 07:39:30;;;;;;;3.20;1.25;;;17.80;66.90;;;;;;6078435;23;20132;-87
2024/01/28 07:41:58;;;;;;;4.53;0.82;;;17.90;66.20;;;;;;6056458;23;20141;-85
2024/01/28 07:44:25;;;;;;;3.92;0.82;;;17.80;66.40;;;;;;6057263;23;20148;-87
2024/01/28 07:46:52;;;;;;;1.73;0.73;;;17.80;66.40;;;;;;6055710;23;20140;-86
2024/01/28 07:49:20;;;;;;;1.20;0.70;;;17.90;66.00;;;;;;6080183;23;20159;-86
2024/01/28 07:51:46;;;;;;;0.70;0.50;;;17.90;66.30;;;;;;6065113;23;20140;-85
2024/01/28 07:54:13;;;;;;;3.03;0.55;;;17.90;66.30;;;;;;6065737;23;20172;-86
2024/01/28 07:56:40;;;;;;;2.05;0.80;;;17.90;66.10;;;;;;6110964;23;20140;-84
2024/01/28 09:40:30;;;;;;;11.40;1.50;;;18.80;62.90;;;;;;6167674;23;20207;-87
2024/01/28 09:50:47;;;;;;;8.52;1.48;;;18.90;63.00;;;;;;6159590;23;20569;-86
2024/01/28 09:53:13;;;;;;;8.70;1.40;;;18.90;63.20;;;;;;6046126;23;20156;-87
2024/01/28 09:55:43;;;;;;;8.05;1.15;;;18.90;63.40;;;;;;6075342;23;20161;-86
2024/01/28 09:58:12;;;;;;;7.70;1.00;;;18.90;63.60;;;;;;6048935;23;20153;-87
2024/01/28 10:00:42;;;;;;;11.65;0.98;;;18.90;63.80;;;;;;6052049;23;20160;-87
2024/01/28 10:04:15;;;;;;;8.63;1.00;;;18.90;64.00;;;;;;6053400;23;20149;-88
2024/01/28 10:06:27;;;;;;;6.28;1.55;;;19.00;63.80;;;;;;6064988;23;20213;-88
2024/01/28 10:09:11;;;;;;;10.80;1.48;;;18.90;63.70;;;;;;6035340;23;20171;-87
2024/01/28 10:13:00;;;;;;;;;;;;;;;;;;;;;
2024/01/28 10:15:34;;;;;;;5.53;1.23;;;18.80;63.80;;;;;;6025524;23;20221;-88
2024/01/28 10:18:05;;;;;;;11.45;1.20;;;18.70;63.90;;;;;;5923098;24;20183;-88
2024/01/28 10:20:36;;;;;;;9.05;1.65;;;18.70;63.60;;;;;;5925142;24;20159;-88
2024/01/28 10:23:07;;;;;;;5.68;1.20;;;18.70;63.90;;;;;;5924529;24;20171;-88
2024/01/28 10:25:35;;;;;;;4.00;0.90;;;18.80;63.90;;;;;;5996294;23;20180;-89
2024/01/28 10:28:18;;;;;;;6.70;0.90;;;18.70;63.40;;;;;;5997016;24;20171;-87
2024/01/28 10:31:24;;;;;;;6.18;1.02;;;18.80;64.50;;;;;;5978126;23;20195;-87
2024/01/28 10:34:17;;;;;;;2.40;0.90;;;18.70;65.20;;;;;;6011149;23;20193;-87
2024/01/28 10:53:47;;;;;;;5.55;1.10;;;18.70;64.60;;;;;;6156737;22;20209;-87
2024/01/28 10:56:34;;;;;;;7.13;1.20;;;18.70;64.30;;;;;;6018585;23;20353;-87
2024/01/28 13:24:07;;;;;;;1.48;0.55;;;18.60;65.70;;;;;;6167019;23;20336;-86
2024/01/28 13:26:33;;;;;;;0.82;0.52;;;18.60;65.50;;;;;;6109003;23;20260;-87
2024/01/28 13:29:00;;;;;;;1.05;0.60;;;18.60;65.60;;;;;;6107915;23;20152;-87
2024/01/28 13:31:28;;;;;;;1.10;0.43;;;18.60;65.70;;;;;;6084108;23;20238;-87
2024/01/28 13:33:56;;;;;;;1.70;0.57;;;18.60;65.80;;;;;;6089713;23;20231;-87
2024/01/28 13:36:22;;;;;;;1.27;0.50;;;18.60;65.80;;;;;;6089493;23;20634;-86
2024/01/28 13:38:49;;;;;;;2.03;0.50;;;18.60;65.30;;;;;;6088875;23;20140;-88
2024/01/28 13:41:16;;;;;;;1.35;0.65;;;18.60;65.70;;;;;;6087718;23;20259;-87
2024/01/28 13:54:02;;;;;;;1.70;0.50;;;18.60;65.80;;;;;;6131223;23;20619;-86
2024/01/28 13:56:32;;;;;;;2.92;0.68;;;18.60;66.20;;;;;;6081783;23;20207;-89
2024/01/28 13:58:58;;;;;;;2.97;0.60;;;18.60;66.10;;;;;;6058010;23;20152;-88
2024/01/28 14:01:34;;;;;;;2.17;0.50;;;18.50;66.00;;;;;;6101687;23;20137;-86
2024/01/28 14:04:02;;;;;;;3.80;0.60;;;18.60;65.30;;;;;;6080996;23;20204;-86
2024/01/28 14:06:29;;;;;;;1.45;0.50;;;18.70;65.50;;;;;;6054055;23;20203;-86
2024/01/28 14:08:55;;;;;;;2.05;0.60;;;18.60;66.00;;;;;;6053572;23;20148;-86
2024/01/28 14:11:21;;;;;;;2.25;0.45;;;18.60;66.10;;;;;;6075848;23;20143;-85
2024/01/28 14:13:51;;;;;;;2.08;0.73;;;18.60;65.30;;;;;;6077805;23;20167;-86
2024/01/28 14:16:23;;;;;;;1.40;0.68;;;18.60;65.80;;;;;;6079540;23;20148;-87
2024/01/28 14:18:50;;;;;;;1.50;0.63;;;18.60;65.60;;;;;;6024361;23;20192;-87
2024/01/28 14:21:16;;;;;;;1.45;0.57;;;18.70;65.00;;;;;;6026025;23;20192;-86
2024/01/28 14:23:45;;;;;;;1.27;0.50;;;18.70;64.70;;;;;;6023251;23;20176;-88
2024/01/28 14:26:14;;;;;;;2.05;0.60;;;18.70;65.20;;;;;;6050022;23;20138;-87
2024/01/28 14:28:40;;;;;;;1.17;0.57;;;18.70;65.30;;;;;;6023804;23;20150;-87
2024/01/28 14:31:08;;;;;;;1.75;0.60;;;18.70;64.50;;;;;;6023194;23;20224;-88
2024/01/28 14:33:34;;;;;;;1.17;0.57;;;18.60;65.60;;;;;;6021432;23;20640;-88
2024/01/28 14:36:01;;;;;;;0.73;0.50;;;18.70;65.40;;;;;;6020392;23;20179;-87
2024/01/28 14:38:29;;;;;;;4.03;0.60;;;18.70;65.50;;;;;;6022218;23;20164;-88
2024/01/28 14:40:56;;;;;;;1.73;0.40;;;18.70;65.20;;;;;;6023553;23;20141;-87
2024/01/28 14:43:24;;;;;;;1.42;0.50;;;18.70;65.50;;;;;;6023737;23;20236;-89
2024/01/28 14:45:50;;;;;;;1.33;0.50;;;18.70;65.20;;;;;;6025548;23;20228;-87
2024/01/28 14:48:23;;;;;;;1.27;0.73;;;18.70;64.90;;;;;;6023609;23;20603;-88
2024/01/28 14:51:05;;;;;;;0.88;0.40;;;18.70;65.40;;;;;;6075626;23;20159;-88
2024/01/28 14:53:33;;;;;;;2.13;0.50;;;18.60;65.60;;;;;;6012562;23;20206;-87
2024/01/28 14:56:28;;;;;;;2.90;0.60;;;18.60;65.40;;;;;;6013107;23;20159;-89
2024/01/28 14:58:54;;;;;;;1.85;0.57;;;18.60;66.20;;;;;;5953128;24;20164;-90
2024/01/28 15:01:21;;;;;;;1.88;0.52;;;18.60;65.90;;;;;;5936890;24;20152;-89
2024/01/28 15:03:47;;;;;;;2.53;0.77;;;18.60;66.00;;;;;;5938266;24;20159;-89
2024/01/28 15:06:13;;;;;;;1.35;0.50;;;18.50;66.00;;;;;;5935472;24;20160;-88
2024/01/28 15:08:44;;;;;;;0.65;0.35;;;18.50;66.60;;;;;;5934269;24;20275;-89
2024/01/28 15:11:10;;;;;;;1.80;0.57;;;18.50;66.60;;;;;;5930731;24;20196;-87
2024/01/28 15:13:36;;;;;;;1.65;0.50;;;18.50;66.20;;;;;;5930911;24;20192;-88
2024/01/28 15:16:02;;;;;;;1.13;0.50;;;18.60;66.10;;;;;;5935262;24;20159;-87
2024/01/28 15:18:29;;;;;;;0.55;0.40;;;18.60;65.80;;;;;;5999399;23;20240;-87
2024/01/28 15:20:55;;;;;;;1.30;0.60;;;18.60;66.00;;;;;;5995018;23;20150;-87
2024/01/28 15:23:22;;;;;;;3.42;0.60;;;18.60;65.60;;;;;;6049294;23;20174;-88
2024/01/28 15:25:49;;;;;;;0.65;0.40;;;18.50;66.50;;;;;;6055372;23;20144;-88
2024/01/28 15:33:26;;;;;;;4.15;0.60;;;18.60;65.00;;;;;;6153645;23;20218;-88
2024/01/28 15:35:53;;;;;;;0.82;0.50;;;18.50;65.30;;;;;;6138847;23;20143;-90
2024/01/28 15:38:20;;;;;;;1.05;0.47;;;18.60;66.00;;;;;;6115396;23;20170;-88
2024/01/28 15:40:46;;;;;;;2.85;0.60;;;18.60;65.40;;;;;;6113386;23;20205;-87
2024/01/28 15:43:12;;;;;;;1.65;0.70;;;18.60;65.20;;;;;;6138585;23;20154;-87
2024/01/28 15:45:38;;;;;;;1.30;0.68;;;18.50;65.60;;;;;;6116808;23;20597;-88
2024/01/28 15:48:05;;;;;;;1.63;0.52;;;18.50;65.70;;;;;;6140792;23;20127;-87
2024/01/28 15:50:30;;;;;;;2.55;0.60;;;18.60;65.50;;;;;;6141238;23;20443;-87
2024/01/28 15:52:56;;;;;;;2.33;0.45;;;18.60;66.30;;;;;;6159549;23;20138;-86
2024/01/28 15:55:23;;;;;;;3.38;0.60;;;18.60;66.00;;;;;;6133086;23;20625;-87
2024/01/28 15:57:49;;;;;;;1.38;0.40;;;18.60;65.70;;;;;;6160786;23;20270;-87
2024/01/28 16:00:17;;;;;;;2.38;0.40;;;18.60;65.30;;;;;;6137620;23;20127;-86
2024/01/28 16:02:44;;;;;;;2.03;0.73;;;18.60;65.80;;;;;;6111983;23;20226;-86
2024/01/28 16:05:11;;;;;;;1.40;0.60;;;18.60;66.00;;;;;;6139285;23;20171;-88
2024/01/28 16:07:38;;;;;;;3.47;0.50;;;18.60;65.40;;;;;;6115753;23;20178;-87
2024/01/28 16:10:06;;;;;;;1.67;0.60;;;18.60;64.90;;;;;;6139127;23;20558;-86
2024/01/28 16:12:32;;;;;;;0.63;0.40;;;18.60;65.60;;;;;;6115536;23;20139;-87
2024/01/28 16:14:58;;;;;;;1.17;0.50;;;18.60;64.40;;;;;;6114144;23;20641;-87
2024/01/28 16:17:26;;;;;;;2.28;0.68;;;18.60;64.30;;;;;;6114815;23;20174;-86
2024/01/28 16:19:52;;;;;;;3.33;0.60;;;18.60;64.90;;;;;;6115951;23;20139;-88
2024/01/28 16:22:29;;;;;;;;;;;;;;;;;;;;;
2024/01/28 17:36:44;;;;;;;1.33;0.50;;;18.70;65.20;;;;;;6130265;23;20220;-86
2024/01/28 17:39:11;;;;;;;0.75;0.47;;;18.70;65.50;;;;;;6061778;23;20159;-87
2024/01/28 17:41:41;;;;;;;1.23;0.50;;;18.80;64.60;;;;;;6068739;23;20168;-88
2024/01/28 17:44:11;;;;;;;1.55;0.40;;;18.80;65.40;;;;;;6068090;23;20208;-88
2024/01/28 17:46:38;;;;;;;2.25;0.57;;;18.90;65.20;;;;;;6086731;23;20208;-87
2024/01/28 17:49:09;;;;;;;0.88;0.40;;;18.90;64.30;;;;;;6066832;23;20167;-88
2024/01/28 17:51:45;;;;;;;1.42;0.60;;;18.90;64.50;;;;;;6069015;23;20156;-89
2024/01/28 17:54:14;;;;;;;0.63;0.50;;;18.90;65.10;;;;;;6026379;23;20181;-88
2024/01/28 17:56:43;;;;;;;1.17;0.60;;;18.90;63.90;;;;;;6045713;23;20154;-87
2024/01/28 17:59:11;;;;;;;0.75;0.40;;;18.90;65.00;;;;;;6023066;23;20245;-87
2024/01/28 18:01:38;;;;;;;2.28;0.50;;;18.80;64.70;;;;;;5993376;23;20234;-86
2024/01/28 18:04:06;;;;;;;1.60;0.50;;;18.90;64.90;;;;;;5991285;23;20210;-86
2024/01/28 18:06:32;;;;;;;2.70;0.57;;;18.80;64.90;;;;;;5965969;23;20194;-87
2024/01/28 18:08:58;;;;;;;3.50;0.50;;;18.70;65.40;;;;;;5964121;23;20162;-87
2024/01/28 18:11:24;;;;;;;0.90;0.60;;;18.70;65.60;;;;;;5963351;23;20143;-87
2024/01/28 18:13:52;;;;;;;2.78;0.60;;;18.70;64.10;;;;;;5985672;23;20285;-86
2024/01/28 18:16:18;;;;;;;1.95;0.50;;;18.70;63.70;;;;;;5963560;23;20584;-87
2024/01/28 18:18:44;;;;;;;2.30;0.52;;;18.70;64.40;;;;;;5962704;23;20162;-87
2024/01/28 18:21:11;;;;;;;2.58;0.57;;;18.70;64.10;;;;;;5986935;23;20143;-86
2024/01/28 18:23:40;;;;;;;2.90;0.50;;;18.70;64.30;;;;;;5986770;23;20135;-86
2024/01/28 18:26:07;;;;;;;3.28;0.80;;;18.70;65.60;;;;;;6017262;23;20188;-87
2024/01/28 18:28:33;;;;;;;1.83;0.65;;;18.60;64.80;;;;;;6043500;23;20134;-87
2024/01/28 18:30:59;;;;;;;5.35;1.10;;;18.70;64.40;;;;;;6018868;23;20196;-86
2024/01/28 18:33:28;;;;;;;2.47;0.60;;;18.70;64.70;;;;;;6018565;23;20236;-86
2024/01/28 18:35:54;;;;;;;1.75;0.47;;;18.70;65.00;;;;;;6043573;23;20312;-86
2024/01/28 18:38:20;;;;;;;4.03;0.57;;;18.70;64.00;;;;;;6056498;23;20591;-86
2024/01/28 18:40:46;;;;;;;1.85;0.52;;;18.70;64.00;;;;;;6054574;23;20156;-87
2024/01/28 18:43:12;;;;;;;2.70;0.68;;;18.70;64.90;;;;;;6078333;23;20210;-87
2024/01/28 18:45:40;;;;;;;1.90;0.50;;;18.60;64.40;;;;;;6055124;23;20571;-86
2024/01/28 18:48:06;;;;;;;2.50;0.60;;;18.70;65.20;;;;;;6078237;23;20255;-87
2024/01/28 18:50:39;;;;;;;4.47;0.88;;;18.60;65.00;;;;;;6053237;23;20147;-87
2024/01/28 18:53:06;;;;;;;3.20;0.60;;;18.60;64.70;;;;;;6101442;23;20136;-87
2024/01/28 18:55:36;;;;;;;1.60;0.50;;;18.60;64.40;;;;;;6077676;23;20183;-86
2024/01/28 18:58:03;;;;;;;0.77;0.45;;;18.60;64.30;;;;;;6077935;23;20174;-86
2024/01/28 19:00:29;;;;;;;2.40;0.45;;;18.60;64.50;;;;;;6053683;23;20227;-87
2024/01/28 19:02:55;;;;;;;2.78;0.50;;;18.60;63.40;;;;;;6078099;23;20163;-87
2024/01/28 19:05:21;;;;;;;0.77;0.60;;;18.60;65.60;;;;;;6101011;23;20215;-87
2024/01/28 19:07:51;;;;;;;1.58;0.40;;;18.60;65.40;;;;;;6076228;23;20162;-87
2024/01/28 19:10:17;;;;;;;1.65;0.40;;;18.60;65.00;;;;;;6077415;23;20170;-86
2024/01/28 19:12:44;;;;;;;0.57;0.50;;;18.60;65.20;;;;;;6052149;23;20601;-87
2024/01/28 19:15:10;;;;;;;1.55;0.55;;;18.60;64.40;;;;;;6076439;23;20338;-87
2024/01/28 19:17:36;;;;;;;2.13;0.60;;;18.60;65.00;;;;;;6079675;23;20179;-86
2024/01/28 19:20:06;;;;;;;2.75;0.60;;;18.60;63.90;;;;;;6052248;23;20232;-87
2024/01/28 19:22:32;;;;;;;2.58;0.63;;;18.60;65.10;;;;;;6076481;23;20148;-87
2024/01/28 19:24:58;;;;;;;2.88;0.50;;;18.70;65.20;;;;;;6075985;23;20136;-87
2024/01/28 19:27:25;;;;;;;3.20;0.85;;;18.60;65.70;;;;;;6076020;23;20152;-86
2024/01/28 19:29:51;;;;;;;3.97;0.52;;;18.60;64.40;;;;;;6052106;23;20137;-87
2024/01/28 19:32:18;;;;;;;1.52;0.40;;;18.60;64.00;;;;;;6076215;23;20544;-87
2024/01/28 19:34:44;;;;;;;2.30;0.40;;;18.60;64.30;;;;;;6071094;23;20524;-86
2024/01/28 19:37:09;;;;;;;1.23;0.40;;;18.60;64.40;;;;;;6048631;23;20346;-86
2024/01/28 19:39:37;;;;;;;0.90;0.60;;;18.60;64.90;;;;;;6049161;23;20161;-87
2024/01/28 19:42:03;;;;;;;0.55;0.38;;;18.60;64.00;;;;;;6025387;23;20153;-84
2024/01/28 19:44:29;;;;;;;0.40;0.38;;;18.60;64.00;;;;;;6072684;23;20143;-84
2024/01/28 19:46:55;;;;;;;0.88;0.35;;;18.60;63.80;;;;;;6025248;23;20243;-84